createdAt,value
2018-12-25T00:01:16.329Z,4.90
2018-12-25T00:03:43.800Z,5.10
2018-12-25T00:06:11.236Z,5.07
2018-12-25T00:08:38.689Z,5.10
2018-12-25T00:11:07.176Z,5.19
2018-12-25T00:13:34.595Z,4.85
2018-12-25T00:16:02.110Z,5.04
2018-12-25T00:18:29.566Z,5.10
2018-12-25T00:20:57.028Z,4.93
2018-12-25T00:23:24.473Z,4.95
2018-12-25T00:25:51.918Z,4.97
2018-12-25T00:28:19.452Z,4.84
2018-12-25T00:30:46.893Z,5.04
2018-12-25T00:33:14.354Z,4.93
2018-12-25T00:35:41.799Z,4.95
2018-12-25T00:38:09.310Z,5.26
2018-12-25T00:40:36.766Z,5.27
2018-12-25T00:43:04.234Z,5.35
2018-12-25T00:45:31.673Z,5.55
2018-12-25T00:47:59.147Z,5.49
2018-12-25T00:50:26.592Z,5.63
2018-12-25T00:52:54.033Z,5.26
2018-12-25T00:57:55.272Z,5.14
2018-12-25T01:00:22.730Z,5.19
2018-12-25T01:02:50.203Z,5.25
2018-12-25T01:05:17.631Z,4.98
2018-12-25T01:07:47.299Z,5.07
2018-12-25T01:10:14.807Z,4.99
2018-12-25T01:12:42.226Z,5.09
2018-12-25T01:15:09.672Z,5.17
2018-12-25T01:17:37.100Z,5.11
2018-12-25T01:20:04.546Z,5.09
2018-12-25T01:22:32.011Z,5.25
2018-12-25T01:24:59.459Z,5.13
2018-12-25T01:27:26.932Z,5.15
2018-12-25T01:29:54.369Z,4.93
2018-12-25T01:32:21.815Z,4.79
2018-12-25T01:34:49.231Z,4.93
2018-12-25T01:37:16.690Z,4.90
2018-12-25T01:39:44.126Z,5.04
2018-12-25T01:42:11.557Z,4.88
2018-12-25T01:44:38.994Z,4.81
2018-12-25T01:47:07.209Z,4.73
2018-12-25T01:49:34.664Z,5.00
2018-12-25T01:52:02.133Z,5.16
2018-12-25T01:54:29.572Z,4.82
2018-12-25T01:56:56.993Z,4.91
2018-12-25T01:59:24.446Z,5.06
2018-12-25T02:01:51.864Z,5.22
2018-12-25T02:04:19.315Z,5.09
2018-12-25T02:06:46.735Z,5.17
2018-12-25T02:09:14.172Z,5.14
2018-12-25T02:11:41.593Z,5.22
2018-12-25T02:14:09.043Z,5.28
2018-12-25T02:16:36.488Z,5.18
2018-12-25T02:19:03.931Z,4.89
2018-12-25T02:21:31.359Z,4.79
2018-12-25T02:23:58.769Z,4.92
2018-12-25T02:26:26.226Z,5.07
2018-12-25T02:28:54.078Z,5.03
2018-12-25T02:31:21.499Z,5.13
2018-12-25T02:33:48.954Z,5.12
2018-12-25T02:36:16.405Z,5.00
2018-12-25T02:38:44.014Z,4.79
2018-12-25T02:41:11.377Z,4.84
2018-12-25T02:43:38.844Z,4.81
2018-12-25T02:46:06.268Z,4.93
2018-12-25T02:48:33.793Z,5.23
2018-12-25T02:51:01.211Z,5.07
2018-12-25T02:53:28.717Z,5.06
2018-12-25T02:55:56.143Z,4.92
2018-12-25T02:58:23.602Z,4.90
2018-12-25T03:00:52.272Z,4.77
2018-12-25T03:03:19.973Z,4.86
2018-12-25T03:05:47.417Z,5.10
2018-12-25T03:08:14.953Z,4.81
2018-12-25T03:10:42.389Z,5.04
2018-12-25T03:13:09.807Z,5.11
2018-12-25T03:15:37.916Z,4.93
2018-12-25T03:18:05.415Z,5.14
2018-12-25T03:20:32.860Z,4.84
2018-12-25T03:23:00.287Z,5.11
2018-12-25T03:25:27.753Z,5.07
2018-12-25T03:27:55.215Z,5.02
2018-12-25T03:30:22.660Z,4.73
2018-12-25T03:32:50.102Z,4.88
2018-12-25T03:35:17.540Z,4.61
2018-12-25T03:37:44.994Z,4.62
2018-12-25T03:40:12.464Z,4.62
2018-12-25T03:42:39.910Z,4.76
2018-12-25T03:45:07.365Z,4.67
2018-12-25T03:47:34.802Z,4.58
2018-12-25T03:50:10.590Z,4.72
2018-12-25T03:52:29.735Z,4.77
2018-12-25T03:54:57.175Z,4.69
2018-12-25T03:57:24.611Z,4.87
2018-12-25T03:59:52.146Z,4.78
2018-12-25T04:02:19.642Z,4.76
2018-12-25T04:04:47.113Z,4.78
2018-12-25T04:07:14.550Z,4.94
2018-12-25T04:09:42.003Z,4.69
2018-12-25T04:12:10.351Z,4.78
2018-12-25T04:14:37.899Z,4.76
2018-12-25T04:17:05.330Z,4.59
2018-12-25T04:19:32.777Z,4.58
2018-12-25T04:22:00.226Z,4.66
2018-12-25T04:24:27.688Z,4.86
2018-12-25T04:26:55.180Z,4.69
2018-12-25T04:29:22.653Z,4.54
2018-12-25T04:31:50.096Z,4.54
2018-12-25T04:34:17.538Z,4.50
2018-12-25T04:36:45.029Z,4.67
2018-12-25T04:39:12.461Z,4.89
2018-12-25T04:41:39.908Z,4.88
2018-12-25T04:44:07.351Z,4.93
2018-12-25T04:46:35.857Z,4.82
2018-12-25T04:49:03.368Z,4.95
2018-12-25T04:51:30.842Z,5.04
2018-12-25T04:53:58.263Z,5.07
2018-12-25T04:56:25.731Z,4.87
2018-12-25T04:58:53.182Z,4.94
2018-12-25T05:01:20.608Z,4.85
2018-12-25T05:03:48.076Z,4.69
2018-12-25T05:06:15.514Z,4.82
2018-12-25T05:08:42.975Z,4.70
2018-12-25T05:11:10.424Z,4.75
2018-12-25T05:13:37.864Z,4.97
2018-12-25T05:16:05.308Z,4.86
2018-12-25T05:18:32.782Z,4.59
2018-12-25T05:21:00.244Z,4.79
2018-12-25T05:23:27.714Z,4.92
2018-12-25T05:25:55.197Z,4.73
2018-12-25T05:28:22.686Z,4.93
2018-12-25T05:30:50.158Z,4.77
2018-12-25T05:33:17.602Z,4.74
2018-12-25T05:35:45.437Z,4.66
2018-12-25T05:38:12.849Z,4.85
2018-12-25T05:40:40.310Z,4.87
2018-12-25T05:43:07.759Z,4.73
2018-12-25T05:45:35.196Z,4.67
2018-12-25T05:48:02.662Z,4.85
2018-12-25T05:50:30.099Z,4.82
2018-12-25T05:52:57.564Z,4.84
2018-12-25T05:55:24.992Z,4.98
2018-12-25T05:57:52.464Z,4.81
2018-12-25T06:00:19.889Z,4.90
2018-12-25T06:02:47.335Z,4.71
2018-12-25T06:05:14.793Z,4.65
2018-12-25T06:07:42.235Z,4.75
2018-12-25T06:10:09.682Z,4.74
2018-12-25T06:12:37.156Z,4.73
2018-12-25T06:15:04.588Z,4.87
2018-12-25T06:17:32.044Z,4.84
2018-12-25T06:19:59.487Z,4.96
2018-12-25T06:22:26.935Z,4.79
2018-12-25T06:24:54.371Z,4.78
2018-12-25T06:27:21.829Z,4.87
2018-12-25T06:29:49.294Z,4.96
2018-12-25T06:32:17.753Z,4.85
2018-12-25T06:34:45.262Z,4.96
2018-12-25T06:37:12.703Z,4.87
2018-12-25T06:39:40.135Z,4.72
2018-12-25T06:42:07.616Z,4.80
2018-12-25T06:44:35.046Z,4.57
2018-12-25T06:47:02.473Z,4.62
2018-12-25T06:49:29.883Z,4.81
2018-12-25T06:51:57.347Z,4.90
2018-12-25T06:54:24.843Z,4.94
2018-12-25T06:56:52.231Z,4.83
2018-12-25T06:59:19.690Z,4.89
2018-12-25T07:01:47.129Z,4.74
2018-12-25T07:04:14.566Z,4.92
2018-12-25T07:06:41.999Z,4.77
2018-12-25T07:09:09.445Z,4.92
2018-12-25T07:11:36.897Z,4.86
2018-12-25T07:14:04.353Z,4.83
2018-12-25T07:16:32.923Z,4.84
2018-12-25T07:19:00.482Z,4.76
2018-12-25T07:21:27.907Z,5.03
2018-12-25T07:23:55.330Z,4.95
2018-12-25T07:26:22.803Z,4.87
2018-12-25T07:28:50.244Z,4.77
2018-12-25T07:31:17.699Z,4.87
2018-12-25T07:33:45.143Z,4.95
2018-12-25T07:36:12.599Z,5.15
2018-12-25T07:38:40.052Z,5.33
2018-12-25T07:41:07.493Z,4.96
2018-12-25T07:43:34.951Z,5.40
2018-12-25T07:46:02.445Z,5.19
2018-12-25T07:48:29.856Z,5.12
2018-12-25T07:50:57.315Z,5.24
2018-12-25T07:53:24.757Z,5.10
2018-12-25T07:55:52.212Z,4.95
2018-12-25T07:58:19.671Z,4.99
2018-12-25T08:00:47.157Z,4.99
2018-12-25T08:03:15.806Z,4.94
2018-12-25T08:05:43.254Z,5.04
2018-12-25T08:08:10.690Z,4.87
2018-12-25T08:10:38.131Z,4.80
2018-12-25T08:13:05.601Z,4.74
2018-12-25T08:15:33.061Z,4.76
2018-12-25T08:18:01.364Z,4.61
2018-12-25T08:20:28.961Z,4.67
2018-12-25T08:23:02.543Z,4.78
2018-12-25T08:25:23.905Z,4.76
2018-12-25T08:27:51.368Z,4.73
2018-12-25T08:30:18.830Z,4.86
2018-12-25T08:32:46.291Z,4.91
2018-12-25T08:35:13.731Z,4.77
2018-12-25T08:37:41.194Z,4.97
2018-12-25T08:40:08.630Z,5.14
2018-12-25T08:42:36.125Z,5.16
2018-12-25T08:45:05.333Z,4.87
2018-12-25T08:47:32.882Z,4.99
2018-12-25T08:50:00.297Z,5.10
2018-12-25T08:52:27.745Z,5.29
2018-12-25T08:54:55.218Z,5.29
2018-12-25T08:57:22.639Z,5.41
2018-12-25T08:59:50.094Z,5.44
2018-12-25T09:02:17.556Z,5.16
2018-12-25T09:04:45.000Z,5.15
2018-12-25T09:07:12.430Z,5.08
2018-12-25T09:09:39.865Z,5.14
2018-12-25T09:12:07.333Z,5.05
2018-12-25T09:14:34.769Z,5.08
2018-12-25T09:17:02.191Z,5.47
2018-12-25T09:19:29.641Z,5.01
2018-12-25T09:21:57.101Z,5.09
2018-12-25T09:24:24.516Z,4.98
2018-12-25T09:26:51.949Z,4.74
2018-12-25T09:29:19.382Z,5.05
2018-12-25T09:31:46.859Z,5.06
2018-12-25T09:34:14.294Z,4.94
2018-12-25T09:36:41.801Z,4.94
2018-12-25T09:39:09.252Z,4.88
2018-12-25T09:41:36.707Z,5.13
2018-12-25T09:44:04.131Z,4.96
2018-12-25T09:46:31.592Z,4.90
2018-12-25T09:48:59.037Z,4.94
2018-12-25T09:51:26.467Z,5.07
2018-12-25T09:53:53.923Z,5.01
2018-12-25T09:56:21.400Z,4.99
2018-12-25T09:58:48.861Z,5.05
2018-12-25T10:01:16.271Z,5.31
2018-12-25T10:03:43.732Z,5.26
2018-12-25T10:06:11.157Z,5.51
2018-12-25T10:08:38.605Z,5.14
2018-12-25T10:11:06.029Z,5.13
2018-12-25T10:13:33.480Z,5.26
2018-12-25T10:16:00.906Z,5.29
2018-12-25T10:18:29.409Z,5.60
2018-12-25T10:20:56.997Z,5.51
2018-12-25T10:23:24.440Z,5.62
2018-12-25T10:25:51.911Z,5.59
2018-12-25T10:28:19.364Z,5.55
2018-12-25T10:30:46.836Z,5.54
2018-12-25T10:33:15.040Z,5.67
2018-12-25T10:35:42.560Z,5.54
2018-12-25T10:38:09.993Z,5.67
2018-12-25T10:40:37.530Z,5.70
2018-12-25T10:43:04.955Z,5.66
2018-12-25T10:45:32.389Z,5.61
2018-12-25T10:48:01.308Z,5.80
2018-12-25T10:50:28.844Z,5.57
2018-12-25T10:52:56.285Z,5.69
2018-12-25T10:55:23.735Z,5.63
2018-12-25T10:57:51.189Z,5.63
2018-12-25T11:00:18.632Z,5.72
2018-12-25T11:02:46.047Z,5.54
2018-12-25T11:05:13.495Z,5.63
2018-12-25T11:07:40.935Z,5.80
2018-12-25T11:10:10.269Z,5.68
2018-12-25T11:12:37.720Z,5.67
2018-12-25T11:15:05.188Z,5.58
2018-12-25T11:17:32.649Z,5.57
2018-12-25T11:20:00.766Z,5.55
2018-12-25T11:22:28.184Z,5.46
2018-12-25T11:24:55.670Z,5.43
2018-12-25T11:27:23.130Z,5.42
2018-12-25T11:29:50.581Z,5.58
2018-12-25T11:32:18.134Z,5.57
2018-12-25T13:05:53.940Z,5.65
2018-12-25T13:08:21.432Z,5.69
2018-12-25T13:10:48.886Z,5.76
2018-12-25T13:13:16.398Z,5.80
2018-12-25T13:15:43.818Z,5.79
2018-12-25T13:18:11.276Z,5.77
2018-12-25T13:20:38.735Z,5.79
2018-12-25T13:23:06.198Z,5.96
2018-12-25T13:25:33.628Z,6.06
2018-12-25T13:28:01.047Z,6.04
2018-12-25T13:30:28.506Z,5.99
2018-12-25T13:32:55.989Z,6.00
2018-12-25T13:35:23.409Z,6.06
2018-12-25T13:37:50.837Z,5.88
2018-12-25T13:40:18.270Z,5.88
2018-12-25T13:42:45.688Z,5.94
2018-12-25T13:45:13.156Z,5.87
2018-12-25T13:47:40.596Z,6.06
2018-12-25T13:50:08.051Z,5.94
2018-12-25T13:52:35.499Z,6.02
2018-12-25T13:55:02.986Z,5.86
2018-12-25T13:57:30.423Z,6.12
2018-12-25T13:59:57.864Z,6.00
2018-12-25T14:02:25.300Z,6.05
2018-12-25T14:04:52.748Z,6.22
2018-12-25T14:07:20.168Z,5.99
2018-12-25T14:09:47.622Z,5.85
2018-12-25T14:12:15.048Z,6.15
2018-12-25T14:14:42.609Z,6.26
2018-12-25T14:17:10.085Z,5.98
2018-12-25T14:19:37.525Z,6.14
2018-12-25T14:22:04.976Z,5.83
2018-12-25T14:24:32.453Z,5.95
2018-12-25T14:26:59.892Z,5.99
2018-12-25T14:29:27.376Z,5.56
2018-12-25T14:31:54.830Z,5.58
2018-12-25T14:34:23.082Z,5.67
2018-12-25T14:36:50.584Z,5.71
2018-12-25T14:39:18.009Z,5.76
2018-12-25T14:41:45.447Z,5.64
2018-12-25T14:44:12.885Z,5.85
2018-12-25T14:46:40.325Z,5.92
2018-12-25T14:49:07.757Z,5.70
2018-12-25T14:51:35.216Z,5.67
2018-12-25T14:54:02.661Z,5.77
2018-12-25T14:56:30.103Z,5.70
2018-12-25T14:58:57.530Z,5.56
2018-12-25T15:01:24.996Z,5.68
2018-12-25T15:03:52.415Z,5.66
2018-12-25T15:06:19.917Z,5.70
2018-12-25T15:08:47.364Z,5.63
2018-12-25T15:11:14.830Z,5.60
2018-12-25T15:13:42.288Z,5.68
2018-12-25T15:16:09.710Z,5.72
2018-12-25T15:18:37.159Z,5.61
2018-12-25T15:21:04.591Z,5.77
2018-12-25T15:23:32.049Z,5.65
2018-12-25T15:25:59.482Z,5.68
2018-12-25T15:28:26.964Z,5.83
2018-12-25T15:30:54.433Z,5.69
2018-12-25T15:33:21.935Z,5.60
2018-12-25T15:38:24.330Z,5.61
2018-12-25T15:40:51.796Z,5.67
2018-12-25T15:43:19.294Z,5.65
2018-12-25T15:45:46.731Z,5.67
2018-12-25T15:48:14.173Z,5.66
2018-12-25T15:50:41.600Z,5.92
2018-12-25T15:53:09.048Z,5.90
2018-12-25T15:55:36.495Z,5.49
2018-12-25T15:58:03.937Z,5.58
2018-12-25T16:00:32.059Z,5.45
2018-12-25T16:02:58.827Z,5.31
2018-12-25T16:05:26.284Z,5.20
2018-12-25T16:07:54.340Z,5.49
2018-12-25T16:10:21.766Z,5.58
2018-12-25T16:12:49.233Z,5.40
2018-12-25T16:15:16.664Z,5.66
2018-12-25T16:17:44.124Z,5.40
2018-12-25T16:20:11.593Z,5.48
2018-12-25T16:22:39.050Z,5.52
2018-12-25T16:25:06.487Z,5.38
2018-12-25T16:27:33.998Z,5.48
2018-12-25T16:30:01.442Z,5.63
2018-12-25T16:32:28.919Z,5.35
2018-12-25T16:34:56.339Z,5.57
2018-12-25T16:37:23.798Z,5.60
2018-12-25T16:39:51.246Z,5.33
2018-12-25T16:42:18.675Z,5.55
2018-12-25T16:44:46.139Z,5.59
2018-12-25T16:47:13.649Z,5.81
2018-12-25T16:49:41.130Z,5.72
2018-12-25T16:52:08.562Z,5.58
2018-12-25T16:54:36.925Z,5.47
2018-12-25T16:57:04.468Z,5.27
2018-12-25T16:59:31.909Z,5.33
2018-12-25T17:01:59.378Z,5.48
2018-12-25T17:04:26.843Z,5.43
2018-12-25T17:06:54.375Z,5.45
2018-12-25T17:09:22.140Z,5.39
2018-12-25T17:11:49.575Z,5.29
2018-12-25T17:14:17.034Z,5.31
2018-12-25T17:16:47.501Z,5.26
2018-12-25T17:19:15.013Z,5.17
2018-12-25T17:21:42.525Z,5.28
2018-12-25T17:24:09.959Z,5.17
2018-12-25T17:26:37.376Z,5.30
2018-12-25T17:29:04.824Z,5.32
2018-12-25T17:31:32.295Z,5.32
2018-12-25T17:33:59.746Z,5.44
2018-12-25T17:36:27.341Z,5.59
2018-12-25T17:38:54.790Z,5.82
2018-12-25T17:41:22.268Z,5.95
2018-12-25T17:43:49.760Z,5.65
2018-12-25T17:46:17.254Z,5.56
2018-12-25T17:48:44.688Z,5.33
2018-12-25T17:51:13.006Z,5.37
2018-12-25T17:53:40.549Z,5.27
2018-12-25T17:56:08.024Z,5.21
2018-12-25T17:58:35.477Z,5.20
2018-12-25T18:01:02.905Z,5.12
2018-12-25T18:03:30.422Z,5.29
2018-12-25T18:05:57.870Z,5.45
2018-12-25T18:08:25.344Z,5.17
2018-12-25T18:10:52.816Z,5.02
2018-12-25T18:13:21.140Z,5.16
2018-12-25T18:15:48.589Z,5.28
2018-12-25T18:18:16.058Z,5.41
2018-12-25T18:20:43.526Z,5.20
2018-12-25T18:23:10.964Z,5.52
2018-12-25T18:25:38.425Z,5.19
2018-12-25T18:28:05.893Z,5.28
2018-12-25T18:30:33.325Z,5.21
2018-12-25T18:33:00.805Z,5.61
2018-12-25T18:35:29.349Z,5.17
2018-12-25T18:37:56.956Z,5.49
2018-12-25T18:40:24.391Z,4.85
2018-12-25T18:42:51.859Z,4.80
2018-12-25T18:45:19.294Z,4.81
2018-12-25T18:47:46.779Z,5.13
2018-12-25T18:50:14.227Z,5.11
2018-12-25T18:52:41.699Z,5.17
2018-12-25T18:55:09.182Z,4.94
2018-12-25T18:57:36.682Z,4.95
2018-12-25T19:00:04.108Z,5.15
2018-12-25T19:02:31.570Z,5.01
2018-12-25T19:04:59.095Z,5.05
2018-12-25T19:07:26.534Z,4.98
2018-12-25T19:09:53.988Z,5.21
2018-12-25T19:12:21.413Z,5.04
2018-12-25T19:14:48.871Z,5.02
2018-12-25T19:17:16.303Z,4.99
2018-12-25T19:19:43.721Z,5.09
2018-12-25T19:22:11.154Z,5.23
2018-12-25T19:24:38.586Z,5.09
2018-12-25T19:27:06.029Z,4.99
2018-12-25T19:29:33.475Z,4.78
2018-12-25T19:32:00.927Z,4.94
2018-12-25T19:34:28.371Z,5.14
2018-12-25T19:36:55.828Z,4.77
2018-12-25T19:39:23.285Z,4.69
2018-12-25T19:41:50.741Z,4.79
2018-12-25T19:44:18.204Z,4.90
2018-12-25T19:46:45.627Z,4.68
2018-12-25T19:49:13.094Z,4.71
2018-12-25T19:51:40.564Z,4.67
2018-12-25T19:54:08.001Z,4.83
2018-12-25T19:56:35.463Z,4.64
2018-12-25T19:59:02.908Z,4.94
2018-12-25T20:01:30.376Z,4.80
2018-12-25T20:03:57.823Z,4.56
2018-12-25T20:06:30.815Z,4.90
2018-12-25T20:09:13.251Z,4.88
2018-12-25T20:11:56.468Z,4.79
2018-12-25T20:14:54.442Z,4.65
2018-12-25T20:17:28.265Z,4.90
2018-12-25T20:20:18.243Z,4.80
2018-12-25T20:22:54.012Z,4.55
2018-12-25T20:25:40.075Z,4.75
2018-12-25T20:28:22.911Z,4.75
2018-12-25T20:31:05.935Z,4.66
2018-12-25T20:33:37.831Z,4.71
2018-12-25T20:36:10.753Z,4.69
2018-12-25T20:38:44.091Z,4.82
2018-12-25T20:41:25.950Z,4.74
2018-12-25T20:44:13.948Z,5.02
2018-12-25T20:46:50.100Z,4.97
2018-12-25T20:49:18.441Z,5.00
2018-12-25T20:52:07.639Z,4.88
2018-12-25T20:55:01.124Z,4.78
2018-12-25T20:57:43.540Z,4.77
2018-12-25T21:00:17.586Z,4.54
2018-12-25T21:02:49.681Z,4.46
2018-12-25T21:05:25.632Z,4.49
2018-12-25T21:08:24.449Z,4.68
2018-12-25T21:11:03.661Z,4.78
2018-12-25T21:13:49.726Z,4.61
2018-12-25T21:16:27.716Z,4.76
2018-12-25T21:19:03.639Z,4.79
2018-12-25T21:21:47.645Z,4.92
2018-12-25T21:24:26.906Z,4.38
2018-12-25T21:27:06.026Z,4.60
2018-12-25T21:29:33.468Z,4.63
2018-12-25T21:32:00.926Z,4.59
2018-12-25T21:34:28.402Z,4.44
2018-12-25T21:36:55.830Z,4.41
2018-12-25T21:39:23.288Z,4.18
2018-12-25T21:41:50.720Z,4.37
2018-12-25T21:44:18.162Z,4.09
2018-12-25T21:46:45.617Z,4.31
2018-12-25T21:49:13.082Z,4.42
2018-12-25T21:51:40.523Z,4.46
2018-12-25T21:54:08.015Z,4.24
2018-12-25T21:56:35.465Z,4.33
2018-12-25T21:59:02.904Z,4.42
2018-12-25T22:01:30.336Z,4.60
2018-12-25T22:03:57.808Z,4.54
2018-12-25T22:06:25.248Z,4.61
2018-12-25T22:08:52.695Z,4.64
2018-12-25T22:11:20.125Z,4.43
2018-12-25T22:13:47.602Z,4.37
2018-12-25T22:16:15.059Z,4.35
2018-12-25T22:18:43.300Z,4.34
2018-12-25T22:21:10.745Z,4.30
2018-12-25T22:23:38.199Z,4.40
2018-12-25T22:26:05.675Z,4.08
2018-12-25T22:28:33.268Z,4.13
2018-12-25T22:31:01.586Z,4.08
2018-12-25T22:33:29.067Z,4.25
2018-12-25T22:35:56.523Z,4.38
2018-12-25T22:38:23.970Z,4.09
2018-12-25T22:40:51.416Z,4.10
2018-12-25T22:43:18.859Z,4.07
2018-12-25T22:45:46.344Z,4.08
2018-12-25T22:48:13.790Z,4.08
2018-12-25T22:50:41.284Z,4.20
2018-12-25T22:53:08.752Z,4.15
2018-12-25T22:55:36.227Z,4.10
2018-12-25T22:58:03.724Z,4.27
2018-12-25T23:00:31.209Z,3.56
2018-12-25T23:02:58.660Z,3.71
2018-12-25T23:05:26.102Z,3.59
2018-12-25T23:07:53.571Z,3.66
2018-12-25T23:10:21.089Z,3.69
2018-12-25T23:12:48.515Z,4.04
2018-12-25T23:15:15.958Z,4.13
2018-12-25T23:17:43.393Z,3.67
2018-12-25T23:20:11.902Z,3.62
2018-12-25T23:22:39.353Z,3.65
2018-12-25T23:25:06.815Z,3.66
2018-12-25T23:27:34.247Z,3.72
2018-12-25T23:30:01.752Z,3.77
2018-12-25T23:32:29.190Z,3.75
2018-12-25T23:34:56.767Z,3.67
2018-12-25T23:37:24.127Z,3.46
2018-12-25T23:39:51.585Z,3.54
2018-12-25T23:42:19.031Z,3.63
2018-12-25T23:44:46.474Z,3.75
2018-12-25T23:47:13.915Z,3.80
2018-12-25T23:49:41.366Z,3.84
2018-12-25T23:52:08.805Z,4.09
2018-12-25T23:54:37.227Z,4.00
2018-12-25T23:57:04.753Z,3.79
2018-12-25T23:59:32.217Z,3.76
